sensor_id;sensor_type;location;lat;lon;timestamp;P1;durP1;ratioP1;P2;durP2;ratioP2
6679;SDS011;3376;42.664;23.346;2023-04-08T00:02:20;19.57;;;16.67;;
6679;SDS011;3376;42.664;23.346;2023-04-08T00:04:46;20.27;;;17.30;;
6679;SDS011;3376;42.664;23.346;2023-04-08T00:07:13;19.30;;;17.40;;
6679;SDS011;3376;42.664;23.346;2023-04-08T00:09:41;19.10;;;17.23;;
6679;SDS011;3376;42.664;23.346;2023-04-08T00:12:08;25.90;;;17.43;;
6679;SDS011;3376;42.664;23.346;2023-04-08T00:14:35;22.10;;;18.53;;
6679;SDS011;3376;42.664;23.346;2023-04-08T00:17:02;19.47;;;16.27;;
6679;SDS011;3376;42.664;23.346;2023-04-08T00:19:29;21.13;;;17.47;;
6679;SDS011;3376;42.664;23.346;2023-04-08T00:21:55;19.03;;;16.70;;
6679;SDS011;3376;42.664;23.346;2023-04-08T00:24:22;21.10;;;17.03;;
6679;SDS011;3376;42.664;23.346;2023-04-08T00:26:50;19.50;;;17.50;;
6679;SDS011;3376;42.664;23.346;2023-04-08T00:29:17;23.00;;;18.13;;
6679;SDS011;3376;42.664;23.346;2023-04-08T00:31:44;19.30;;;17.03;;
6679;SDS011;3376;42.664;23.346;2023-04-08T00:34:11;21.83;;;17.50;;
6679;SDS011;3376;42.664;23.346;2023-04-08T00:36:38;22.70;;;20.07;;
6679;SDS011;3376;42.664;23.346;2023-04-08T00:39:05;20.57;;;18.47;;
6679;SDS011;3376;42.664;23.346;2023-04-08T00:41:32;19.77;;;17.13;;
6679;SDS011;3376;42.664;23.346;2023-04-08T00:44:01;19.47;;;16.80;;
6679;SDS011;3376;42.664;23.346;2023-04-08T00:46:28;19.00;;;17.20;;
6679;SDS011;3376;42.664;23.346;2023-04-08T00:48:56;20.63;;;18.57;;
6679;SDS011;3376;42.664;23.346;2023-04-08T00:51:23;25.83;;;22.30;;
6679;SDS011;3376;42.664;23.346;2023-04-08T00:53:50;22.83;;;20.43;;
6679;SDS011;3376;42.664;23.346;2023-04-08T00:56:17;23.23;;;18.97;;
6679;SDS011;3376;42.664;23.346;2023-04-08T00:58:43;19.93;;;18.07;;
6679;SDS011;3376;42.664;23.346;2023-04-08T01:01:13;19.50;;;17.60;;
6679;SDS011;3376;42.664;23.346;2023-04-08T01:03:49;16.20;;;14.53;;
6679;SDS011;3376;42.664;23.346;2023-04-08T01:06:25;15.10;;;13.67;;
6679;SDS011;3376;42.664;23.346;2023-04-08T01:08:57;20.80;;;12.93;;
6679;SDS011;3376;42.664;23.346;2023-04-08T01:11:25;17.80;;;13.67;;
6679;SDS011;3376;42.664;23.346;2023-04-08T01:13:55;15.63;;;14.13;;
6679;SDS011;3376;42.664;23.346;2023-04-08T01:16:24;14.30;;;13.13;;
6679;SDS011;3376;42.664;23.346;2023-04-08T01:18:52;15.63;;;14.03;;
6679;SDS011;3376;42.664;23.346;2023-04-08T01:21:19;15.37;;;13.87;;
6679;SDS011;3376;42.664;23.346;2023-04-08T01:23:52;16.23;;;14.63;;
6679;SDS011;3376;42.664;23.346;2023-04-08T01:26:26;16.80;;;15.30;;
6679;SDS011;3376;42.664;23.346;2023-04-08T01:28:55;16.40;;;14.70;;
6679;SDS011;3376;42.664;23.346;2023-04-08T01:31:23;16.67;;;14.83;;
6679;SDS011;3376;42.664;23.346;2023-04-08T01:33:52;16.30;;;14.70;;
6679;SDS011;3376;42.664;23.346;2023-04-08T01:36:19;17.33;;;14.60;;
6679;SDS011;3376;42.664;23.346;2023-04-08T01:38:48;17.37;;;15.77;;
6679;SDS011;3376;42.664;23.346;2023-04-08T01:41:16;17.43;;;15.60;;
6679;SDS011;3376;42.664;23.346;2023-04-08T01:43:46;16.17;;;14.67;;
6679;SDS011;3376;42.664;23.346;2023-04-08T01:46:15;17.33;;;15.67;;
6679;SDS011;3376;42.664;23.346;2023-04-08T01:48:42;16.37;;;14.93;;
6679;SDS011;3376;42.664;23.346;2023-04-08T01:51:10;15.13;;;13.70;;
6679;SDS011;3376;42.664;23.346;2023-04-08T01:53:37;16.13;;;14.73;;
6679;SDS011;3376;42.664;23.346;2023-04-08T01:56:05;16.43;;;14.70;;
6679;SDS011;3376;42.664;23.346;2023-04-08T01:58:37;16.93;;;14.70;;
6679;SDS011;3376;42.664;23.346;2023-04-08T02:01:10;15.10;;;13.73;;
6679;SDS011;3376;42.664;23.346;2023-04-08T02:03:40;24.53;;;15.03;;
6679;SDS011;3376;42.664;23.346;2023-04-08T02:06:09;16.67;;;15.17;;
6679;SDS011;3376;42.664;23.346;2023-04-08T02:08:36;16.40;;;14.53;;
6679;SDS011;3376;42.664;23.346;2023-04-08T02:11:03;16.20;;;14.53;;
6679;SDS011;3376;42.664;23.346;2023-04-08T02:13:30;14.53;;;13.30;;
6679;SDS011;3376;42.664;23.346;2023-04-08T02:16:00;18.17;;;16.07;;
6679;SDS011;3376;42.664;23.346;2023-04-08T02:18:33;15.93;;;14.63;;
6679;SDS011;3376;42.664;23.346;2023-04-08T02:21:03;16.20;;;14.90;;
6679;SDS011;3376;42.664;23.346;2023-04-08T02:23:36;16.67;;;15.27;;
6679;SDS011;3376;42.664;23.346;2023-04-08T02:26:06;15.43;;;14.20;;
6679;SDS011;3376;42.664;23.346;2023-04-08T02:28:37;18.73;;;14.90;;
6679;SDS011;3376;42.664;23.346;2023-04-08T02:31:05;16.43;;;15.03;;
6679;SDS011;3376;42.664;23.346;2023-04-08T02:33:39;16.67;;;15.27;;
6679;SDS011;3376;42.664;23.346;2023-04-08T02:36:06;17.60;;;15.90;;
6679;SDS011;3376;42.664;23.346;2023-04-08T02:38:35;16.90;;;15.13;;
6679;SDS011;3376;42.664;23.346;2023-04-08T02:41:01;16.87;;;15.40;;
6679;SDS011;3376;42.664;23.346;2023-04-08T02:43:28;16.83;;;15.30;;
6679;SDS011;3376;42.664;23.346;2023-04-08T02:45:57;16.63;;;15.00;;
6679;SDS011;3376;42.664;23.346;2023-04-08T02:48:27;15.73;;;14.17;;
6679;SDS011;3376;42.664;23.346;2023-04-08T02:50:55;15.53;;;13.93;;
6679;SDS011;3376;42.664;23.346;2023-04-08T02:53:22;15.67;;;14.47;;
6679;SDS011;3376;42.664;23.346;2023-04-08T02:55:49;15.30;;;13.93;;
6679;SDS011;3376;42.664;23.346;2023-04-08T02:58:16;14.47;;;13.13;;
6679;SDS011;3376;42.664;23.346;2023-04-08T03:00:42;13.63;;;12.67;;
6679;SDS011;3376;42.664;23.346;2023-04-08T03:03:09;15.63;;;14.17;;
6679;SDS011;3376;42.664;23.346;2023-04-08T03:05:36;14.17;;;13.00;;
6679;SDS011;3376;42.664;23.346;2023-04-08T03:08:04;17.43;;;15.63;;
6679;SDS011;3376;42.664;23.346;2023-04-08T03:10:31;18.93;;;14.67;;
6679;SDS011;3376;42.664;23.346;2023-04-08T03:12:58;15.47;;;14.07;;
6679;SDS011;3376;42.664;23.346;2023-04-08T03:15:25;13.97;;;12.90;;
6679;SDS011;3376;42.664;23.346;2023-04-08T03:17:52;14.83;;;13.70;;
6679;SDS011;3376;42.664;23.346;2023-04-08T03:20:19;15.00;;;13.53;;
6679;SDS011;3376;42.664;23.346;2023-04-08T03:22:45;14.37;;;13.20;;
6679;SDS011;3376;42.664;23.346;2023-04-08T03:25:13;13.87;;;12.67;;
6679;SDS011;3376;42.664;23.346;2023-04-08T03:27:40;14.60;;;13.30;;
6679;SDS011;3376;42.664;23.346;2023-04-08T03:30:07;13.40;;;12.10;;
6679;SDS011;3376;42.664;23.346;2023-04-08T03:32:34;12.20;;;11.40;;
6679;SDS011;3376;42.664;23.346;2023-04-08T03:35:01;15.10;;;13.83;;
6679;SDS011;3376;42.664;23.346;2023-04-08T03:37:28;14.10;;;12.90;;
6679;SDS011;3376;42.664;23.346;2023-04-08T03:39:55;13.87;;;12.73;;
6679;SDS011;3376;42.664;23.346;2023-04-08T03:42:23;14.07;;;12.93;;
6679;SDS011;3376;42.664;23.346;2023-04-08T03:44:50;13.47;;;12.53;;
6679;SDS011;3376;42.664;23.346;2023-04-08T03:47:16;12.47;;;11.53;;
6679;SDS011;3376;42.664;23.346;2023-04-08T03:49:43;12.40;;;11.50;;
6679;SDS011;3376;42.664;23.346;2023-04-08T03:52:10;11.87;;;11.07;;
6679;SDS011;3376;42.664;23.346;2023-04-08T03:54:37;13.20;;;12.20;;
6679;SDS011;3376;42.664;23.346;2023-04-08T03:57:03;15.43;;;14.13;;
6679;SDS011;3376;42.664;23.346;2023-04-08T03:59:31;18.30;;;16.20;;
6679;SDS011;3376;42.664;23.346;2023-04-08T04:02:00;20.83;;;16.67;;
6679;SDS011;3376;42.664;23.346;2023-04-08T04:04:27;18.53;;;16.57;;
6679;SDS011;3376;42.664;23.346;2023-04-08T04:06:54;22.07;;;18.20;;
6679;SDS011;3376;42.664;23.346;2023-04-08T04:09:20;19.53;;;17.30;;
6679;SDS011;3376;42.664;23.346;2023-04-08T04:11:47;19.20;;;17.07;;
6679;SDS011;3376;42.664;23.346;2023-04-08T04:14:14;22.07;;;17.93;;
6679;SDS011;3376;42.664;23.346;2023-04-08T04:16:42;21.60;;;17.83;;
6679;SDS011;3376;42.664;23.346;2023-04-08T04:19:09;21.47;;;18.60;;
6679;SDS011;3376;42.664;23.346;2023-04-08T04:21:35;20.53;;;18.37;;
6679;SDS011;3376;42.664;23.346;2023-04-08T04:24:02;21.93;;;19.53;;
6679;SDS011;3376;42.664;23.346;2023-04-08T04:26:29;23.13;;;19.00;;
6679;SDS011;3376;42.664;23.346;2023-04-08T04:28:56;22.47;;;18.47;;
6679;SDS011;3376;42.664;23.346;2023-04-08T04:31:23;21.23;;;18.53;;
6679;SDS011;3376;42.664;23.346;2023-04-08T04:33:52;19.77;;;17.97;;
6679;SDS011;3376;42.664;23.346;2023-04-08T04:36:19;21.03;;;18.83;;
6679;SDS011;3376;42.664;23.346;2023-04-08T04:38:46;26.80;;;19.37;;
6679;SDS011;3376;42.664;23.346;2023-04-08T04:41:14;28.10;;;19.83;;
6679;SDS011;3376;42.664;23.346;2023-04-08T04:43:41;22.00;;;19.57;;
6679;SDS011;3376;42.664;23.346;2023-04-08T04:46:08;22.30;;;19.90;;
6679;SDS011;3376;42.664;23.346;2023-04-08T04:48:34;23.63;;;18.90;;
6679;SDS011;3376;42.664;23.346;2023-04-08T04:51:03;21.43;;;18.67;;
6679;SDS011;3376;42.664;23.346;2023-04-08T04:53:31;20.30;;;18.07;;
6679;SDS011;3376;42.664;23.346;2023-04-08T04:55:58;23.00;;;18.17;;
6679;SDS011;3376;42.664;23.346;2023-04-08T04:58:25;21.63;;;19.33;;
6679;SDS011;3376;42.664;23.346;2023-04-08T05:00:52;24.13;;;18.93;;
6679;SDS011;3376;42.664;23.346;2023-04-08T05:03:19;18.77;;;16.83;;
6679;SDS011;3376;42.664;23.346;2023-04-08T05:05:49;19.23;;;17.20;;
6679;SDS011;3376;42.664;23.346;2023-04-08T05:08:18;19.03;;;16.87;;
6679;SDS011;3376;42.664;23.346;2023-04-08T05:10:44;18.47;;;16.63;;
6679;SDS011;3376;42.664;23.346;2023-04-08T05:13:14;17.77;;;16.27;;
6679;SDS011;3376;42.664;23.346;2023-04-08T05:15:41;17.17;;;15.70;;
6679;SDS011;3376;42.664;23.346;2023-04-08T05:18:08;18.07;;;16.30;;
6679;SDS011;3376;42.664;23.346;2023-04-08T05:20:34;18.33;;;16.33;;
6679;SDS011;3376;42.664;23.346;2023-04-08T05:23:01;17.70;;;16.00;;
6679;SDS011;3376;42.664;23.346;2023-04-08T05:25:29;20.60;;;17.03;;
6679;SDS011;3376;42.664;23.346;2023-04-08T05:27:56;23.47;;;17.03;;
6679;SDS011;3376;42.664;23.346;2023-04-08T05:30:23;19.37;;;17.40;;
6679;SDS011;3376;42.664;23.346;2023-04-08T05:32:50;19.90;;;16.70;;
6679;SDS011;3376;42.664;23.346;2023-04-08T05:35:17;18.63;;;16.87;;
6679;SDS011;3376;42.664;23.346;2023-04-08T05:37:43;18.10;;;16.50;;
6679;SDS011;3376;42.664;23.346;2023-04-08T05:40:10;24.87;;;18.27;;
6679;SDS011;3376;42.664;23.346;2023-04-08T05:42:38;19.10;;;16.53;;
6679;SDS011;3376;42.664;23.346;2023-04-08T05:45:06;19.10;;;17.23;;
6679;SDS011;3376;42.664;23.346;2023-04-08T05:47:33;19.30;;;17.37;;
6679;SDS011;3376;42.664;23.346;2023-04-08T05:50:00;18.70;;;16.53;;
6679;SDS011;3376;42.664;23.346;2023-04-08T05:52:27;17.67;;;15.77;;
6679;SDS011;3376;42.664;23.346;2023-04-08T05:54:54;18.40;;;15.40;;
6679;SDS011;3376;42.664;23.346;2023-04-08T05:57:20;15.20;;;13.50;;
6679;SDS011;3376;42.664;23.346;2023-04-08T05:59:49;16.40;;;14.93;;
6679;SDS011;3376;42.664;23.346;2023-04-08T06:02:17;17.40;;;15.60;;
6679;SDS011;3376;42.664;23.346;2023-04-08T06:04:44;17.50;;;14.33;;
6679;SDS011;3376;42.664;23.346;2023-04-08T06:07:11;16.33;;;14.70;;
6679;SDS011;3376;42.664;23.346;2023-04-08T06:09:37;16.13;;;14.60;;
6679;SDS011;3376;42.664;23.346;2023-04-08T06:12:04;15.60;;;14.20;;
6679;SDS011;3376;42.664;23.346;2023-04-08T06:14:31;17.23;;;15.57;;
6679;SDS011;3376;42.664;23.346;2023-04-08T06:16:59;16.10;;;14.27;;
6679;SDS011;3376;42.664;23.346;2023-04-08T06:19:26;15.93;;;13.70;;
6679;SDS011;3376;42.664;23.346;2023-04-08T06:21:53;16.10;;;14.13;;
6679;SDS011;3376;42.664;23.346;2023-04-08T06:24:23;15.40;;;13.97;;
6679;SDS011;3376;42.664;23.346;2023-04-08T06:26:50;14.93;;;13.50;;
6679;SDS011;3376;42.664;23.346;2023-04-08T06:29:18;14.17;;;13.13;;
6679;SDS011;3376;42.664;23.346;2023-04-08T06:31:45;15.50;;;14.10;;
6679;SDS011;3376;42.664;23.346;2023-04-08T06:34:13;15.07;;;13.87;;
6679;SDS011;3376;42.664;23.346;2023-04-08T06:36:40;15.27;;;13.97;;
6679;SDS011;3376;42.664;23.346;2023-04-08T06:39:07;14.10;;;13.00;;
6679;SDS011;3376;42.664;23.346;2023-04-08T06:41:34;15.87;;;14.47;;
6679;SDS011;3376;42.664;23.346;2023-04-08T06:44:01;15.17;;;13.63;;
6679;SDS011;3376;42.664;23.346;2023-04-08T06:46:28;15.80;;;14.67;;
6679;SDS011;3376;42.664;23.346;2023-04-08T06:48:54;14.80;;;13.50;;
6679;SDS011;3376;42.664;23.346;2023-04-08T06:51:22;16.77;;;15.27;;
6679;SDS011;3376;42.664;23.346;2023-04-08T06:53:49;14.50;;;13.27;;
6679;SDS011;3376;42.664;23.346;2023-04-08T06:56:16;15.20;;;13.80;;
6679;SDS011;3376;42.664;23.346;2023-04-08T06:58:45;19.53;;;13.83;;
6679;SDS011;3376;42.664;23.346;2023-04-08T07:01:12;15.40;;;13.90;;
6679;SDS011;3376;42.664;23.346;2023-04-08T07:03:40;16.23;;;12.83;;
6679;SDS011;3376;42.664;23.346;2023-04-08T07:06:07;15.57;;;14.07;;
6679;SDS011;3376;42.664;23.346;2023-04-08T07:08:35;15.80;;;14.33;;
6679;SDS011;3376;42.664;23.346;2023-04-08T07:11:02;15.17;;;13.83;;
6679;SDS011;3376;42.664;23.346;2023-04-08T07:13:31;14.47;;;13.27;;
6679;SDS011;3376;42.664;23.346;2023-04-08T07:15:57;14.83;;;13.30;;
6679;SDS011;3376;42.664;23.346;2023-04-08T07:18:24;23.70;;;14.77;;
6679;SDS011;3376;42.664;23.346;2023-04-08T07:20:51;14.13;;;13.13;;
6679;SDS011;3376;42.664;23.346;2023-04-08T07:23:18;14.87;;;13.67;;
6679;SDS011;3376;42.664;23.346;2023-04-08T07:25:46;14.60;;;13.37;;
6679;SDS011;3376;42.664;23.346;2023-04-08T07:28:13;15.70;;;14.27;;
6679;SDS011;3376;42.664;23.346;2023-04-08T07:30:40;15.93;;;14.53;;
6679;SDS011;3376;42.664;23.346;2023-04-08T07:33:07;15.63;;;14.33;;
6679;SDS011;3376;42.664;23.346;2023-04-08T07:35:33;15.10;;;13.77;;
6679;SDS011;3376;42.664;23.346;2023-04-08T07:38:00;15.80;;;14.37;;
6679;SDS011;3376;42.664;23.346;2023-04-08T07:40:27;15.43;;;14.37;;
6679;SDS011;3376;42.664;23.346;2023-04-08T07:42:55;15.97;;;14.67;;
6679;SDS011;3376;42.664;23.346;2023-04-08T07:45:22;15.47;;;14.23;;
6679;SDS011;3376;42.664;23.346;2023-04-08T07:47:49;15.87;;;14.37;;
6679;SDS011;3376;42.664;23.346;2023-04-08T07:50:15;15.17;;;13.73;;
6679;SDS011;3376;42.664;23.346;2023-04-08T07:52:43;15.47;;;14.17;;
6679;SDS011;3376;42.664;23.346;2023-04-08T07:55:09;15.93;;;14.40;;
6679;SDS011;3376;42.664;23.346;2023-04-08T07:57:36;14.07;;;13.07;;
6679;SDS011;3376;42.664;23.346;2023-04-08T08:00:05;14.17;;;12.93;;
6679;SDS011;3376;42.664;23.346;2023-04-08T08:02:33;15.37;;;13.77;;
6679;SDS011;3376;42.664;23.346;2023-04-08T08:05:00;14.13;;;13.13;;
6679;SDS011;3376;42.664;23.346;2023-04-08T08:07:27;15.47;;;14.07;;
6679;SDS011;3376;42.664;23.346;2023-04-08T08:09:54;15.97;;;14.57;;
6679;SDS011;3376;42.664;23.346;2023-04-08T08:12:21;14.13;;;13.23;;
6679;SDS011;3376;42.664;23.346;2023-04-08T08:14:48;15.70;;;14.23;;
6679;SDS011;3376;42.664;23.346;2023-04-08T08:17:16;14.83;;;13.73;;
6679;SDS011;3376;42.664;23.346;2023-04-08T08:19:43;15.40;;;14.03;;
6679;SDS011;3376;42.664;23.346;2023-04-08T08:22:10;15.40;;;14.03;;
6679;SDS011;3376;42.664;23.346;2023-04-08T08:24:37;14.97;;;13.73;;
6679;SDS011;3376;42.664;23.346;2023-04-08T08:27:04;16.43;;;15.17;;
6679;SDS011;3376;42.664;23.346;2023-04-08T08:29:30;14.53;;;13.50;;
6679;SDS011;3376;42.664;23.346;2023-04-08T08:31:57;15.13;;;13.93;;
6679;SDS011;3376;42.664;23.346;2023-04-08T08:34:25;15.83;;;14.43;;
6679;SDS011;3376;42.664;23.346;2023-04-08T08:36:52;15.70;;;14.07;;
6679;SDS011;3376;42.664;23.346;2023-04-08T08:39:20;16.70;;;15.20;;
6679;SDS011;3376;42.664;23.346;2023-04-08T08:41:46;15.07;;;13.83;;
6679;SDS011;3376;42.664;23.346;2023-04-08T08:44:14;16.70;;;14.93;;
6679;SDS011;3376;42.664;23.346;2023-04-08T08:46:41;17.17;;;15.70;;
6679;SDS011;3376;42.664;23.346;2023-04-08T08:49:09;16.83;;;15.37;;
6679;SDS011;3376;42.664;23.346;2023-04-08T08:51:39;16.40;;;14.63;;
6679;SDS011;3376;42.664;23.346;2023-04-08T08:54:06;22.70;;;16.83;;
6679;SDS011;3376;42.664;23.346;2023-04-08T08:56:33;17.03;;;15.53;;
6679;SDS011;3376;42.664;23.346;2023-04-08T08:59:00;16.47;;;14.70;;
6679;SDS011;3376;42.664;23.346;2023-04-08T09:01:33;16.97;;;15.47;;
6679;SDS011;3376;42.664;23.346;2023-04-08T09:04:08;17.23;;;15.73;;
6679;SDS011;3376;42.664;23.346;2023-04-08T09:06:39;17.70;;;16.07;;
6679;SDS011;3376;42.664;23.346;2023-04-08T09:09:06;16.87;;;15.57;;
6679;SDS011;3376;42.664;23.346;2023-04-08T09:11:35;16.40;;;15.10;;
6679;SDS011;3376;42.664;23.346;2023-04-08T09:14:03;18.47;;;16.80;;
6679;SDS011;3376;42.664;23.346;2023-04-08T09:16:31;17.97;;;16.33;;
6679;SDS011;3376;42.664;23.346;2023-04-08T09:19:08;16.60;;;15.20;;
6679;SDS011;3376;42.664;23.346;2023-04-08T09:21:36;17.57;;;16.07;;
6679;SDS011;3376;42.664;23.346;2023-04-08T09:24:06;17.20;;;15.73;;
6679;SDS011;3376;42.664;23.346;2023-04-08T09:26:33;14.47;;;13.30;;
6679;SDS011;3376;42.664;23.346;2023-04-08T09:29:02;13.97;;;12.73;;
6679;SDS011;3376;42.664;23.346;2023-04-08T09:31:30;17.17;;;15.40;;
6679;SDS011;3376;42.664;23.346;2023-04-08T09:33:58;15.27;;;14.17;;
6679;SDS011;3376;42.664;23.346;2023-04-08T09:36:26;15.07;;;13.87;;
6679;SDS011;3376;42.664;23.346;2023-04-08T09:38:53;15.03;;;14.03;;
6679;SDS011;3376;42.664;23.346;2023-04-08T09:41:22;15.17;;;13.77;;
6679;SDS011;3376;42.664;23.346;2023-04-08T09:43:52;15.73;;;14.50;;
6679;SDS011;3376;42.664;23.346;2023-04-08T09:46:24;16.57;;;14.87;;
6679;SDS011;3376;42.664;23.346;2023-04-08T09:48:55;15.57;;;14.27;;
6679;SDS011;3376;42.664;23.346;2023-04-08T09:51:27;15.73;;;14.50;;
6679;SDS011;3376;42.664;23.346;2023-04-08T09:53:59;15.57;;;14.33;;
6679;SDS011;3376;42.664;23.346;2023-04-08T09:56:34;15.37;;;14.07;;
6679;SDS011;3376;42.664;23.346;2023-04-08T09:59:08;14.77;;;13.77;;
6679;SDS011;3376;42.664;23.346;2023-04-08T10:01:39;15.30;;;14.20;;
6679;SDS011;3376;42.664;23.346;2023-04-08T10:04:11;13.73;;;12.83;;
6679;SDS011;3376;42.664;23.346;2023-04-08T10:06:41;14.60;;;13.47;;
6679;SDS011;3376;42.664;23.346;2023-04-08T10:09:08;14.60;;;13.63;;
6679;SDS011;3376;42.664;23.346;2023-04-08T10:11:38;15.83;;;14.20;;
6679;SDS011;3376;42.664;23.346;2023-04-08T10:14:05;14.23;;;13.07;;
6679;SDS011;3376;42.664;23.346;2023-04-08T10:16:35;15.47;;;14.00;;
6679;SDS011;3376;42.664;23.346;2023-04-08T10:19:03;14.70;;;13.47;;
6679;SDS011;3376;42.664;23.346;2023-04-08T10:22:03;15.10;;;13.90;;
6679;SDS011;3376;42.664;23.346;2023-04-08T10:25:27;14.83;;;13.70;;
6679;SDS011;3376;42.664;23.346;2023-04-08T10:27:56;12.97;;;12.07;;
6679;SDS011;3376;42.664;23.346;2023-04-08T10:30:38;13.90;;;13.00;;
6679;SDS011;3376;42.664;23.346;2023-04-08T10:33:09;14.20;;;13.10;;
6679;SDS011;3376;42.664;23.346;2023-04-08T10:35:37;14.67;;;13.67;;
6679;SDS011;3376;42.664;23.346;2023-04-08T10:38:07;14.93;;;13.83;;
6679;SDS011;3376;42.664;23.346;2023-04-08T10:40:36;15.73;;;14.23;;
6679;SDS011;3376;42.664;23.346;2023-04-08T10:43:06;14.37;;;13.10;;
6679;SDS011;3376;42.664;23.346;2023-04-08T10:45:34;16.23;;;14.80;;
6679;SDS011;3376;42.664;23.346;2023-04-08T10:48:10;15.10;;;13.57;;
6679;SDS011;3376;42.664;23.346;2023-04-08T10:50:41;14.73;;;13.23;;
6679;SDS011;3376;42.664;23.346;2023-04-08T10:53:09;13.57;;;12.67;;
6679;SDS011;3376;42.664;23.346;2023-04-08T10:55:36;13.50;;;12.50;;
6679;SDS011;3376;42.664;23.346;2023-04-08T10:58:04;13.83;;;12.73;;
6679;SDS011;3376;42.664;23.346;2023-04-08T11:00:34;12.37;;;11.57;;
6679;SDS011;3376;42.664;23.346;2023-04-08T11:03:01;14.60;;;12.47;;
6679;SDS011;3376;42.664;23.346;2023-04-08T11:05:28;15.47;;;14.17;;
6679;SDS011;3376;42.664;23.346;2023-04-08T11:07:55;14.63;;;13.23;;
6679;SDS011;3376;42.664;23.346;2023-04-08T11:10:23;12.97;;;11.97;;
6679;SDS011;3376;42.664;23.346;2023-04-08T11:12:51;13.90;;;12.90;;
6679;SDS011;3376;42.664;23.346;2023-04-08T11:15:19;14.23;;;12.87;;
6679;SDS011;3376;42.664;23.346;2023-04-08T11:17:48;13.57;;;12.43;;
6679;SDS011;3376;42.664;23.346;2023-04-08T11:20:15;13.30;;;12.17;;
6679;SDS011;3376;42.664;23.346;2023-04-08T11:22:43;11.30;;;10.70;;
6679;SDS011;3376;42.664;23.346;2023-04-08T11:25:10;10.70;;;9.83;;
6679;SDS011;3376;42.664;23.346;2023-04-08T11:27:37;11.80;;;11.10;;
6679;SDS011;3376;42.664;23.346;2023-04-08T11:30:05;12.80;;;12.00;;
6679;SDS011;3376;42.664;23.346;2023-04-08T11:32:33;13.07;;;11.73;;
6679;SDS011;3376;42.664;23.346;2023-04-08T11:35:03;11.10;;;10.47;;
6679;SDS011;3376;42.664;23.346;2023-04-08T11:37:35;11.20;;;10.50;;
6679;SDS011;3376;42.664;23.346;2023-04-08T11:40:05;12.03;;;11.23;;
6679;SDS011;3376;42.664;23.346;2023-04-08T11:42:33;11.77;;;10.97;;
6679;SDS011;3376;42.664;23.346;2023-04-08T11:45:00;11.40;;;10.50;;
6679;SDS011;3376;42.664;23.346;2023-04-08T11:47:30;10.30;;;9.70;;
6679;SDS011;3376;42.664;23.346;2023-04-08T11:49:57;11.17;;;10.27;;
6679;SDS011;3376;42.664;23.346;2023-04-08T11:55:09;10.13;;;9.53;;
6679;SDS011;3376;42.664;23.346;2023-04-08T11:57:37;11.50;;;10.53;;
6679;SDS011;3376;42.664;23.346;2023-04-08T12:00:04;11.80;;;11.00;;
6679;SDS011;3376;42.664;23.346;2023-04-08T12:02:31;10.47;;;9.77;;
6679;SDS011;3376;42.664;23.346;2023-04-08T12:04:58;11.97;;;11.17;;
6679;SDS011;3376;42.664;23.346;2023-04-08T12:07:26;12.13;;;11.33;;
6679;SDS011;3376;42.664;23.346;2023-04-08T12:09:54;12.50;;;11.37;;
6679;SDS011;3376;42.664;23.346;2023-04-08T12:12:21;12.03;;;11.23;;
6679;SDS011;3376;42.664;23.346;2023-04-08T12:14:48;10.50;;;9.97;;
6679;SDS011;3376;42.664;23.346;2023-04-08T12:17:15;10.43;;;9.93;;
6679;SDS011;3376;42.664;23.346;2023-04-08T12:19:42;11.00;;;10.27;;
6679;SDS011;3376;42.664;23.346;2023-04-08T12:22:08;9.70;;;9.00;;
6679;SDS011;3376;42.664;23.346;2023-04-08T12:24:35;9.87;;;9.17;;
6679;SDS011;3376;42.664;23.346;2023-04-08T12:27:03;9.20;;;8.80;;
6679;SDS011;3376;42.664;23.346;2023-04-08T12:29:30;9.43;;;8.93;;
6679;SDS011;3376;42.664;23.346;2023-04-08T12:31:57;9.13;;;7.50;;
6679;SDS011;3376;42.664;23.346;2023-04-08T12:34:24;8.67;;;8.17;;
6679;SDS011;3376;42.664;23.346;2023-04-08T12:36:51;9.20;;;8.80;;
6679;SDS011;3376;42.664;23.346;2023-04-08T12:39:17;8.80;;;8.20;;
6679;SDS011;3376;42.664;23.346;2023-04-08T12:41:45;9.03;;;8.53;;
6679;SDS011;3376;42.664;23.346;2023-04-08T12:44:13;8.27;;;7.93;;
6679;SDS011;3376;42.664;23.346;2023-04-08T12:46:40;9.07;;;8.57;;
6679;SDS011;3376;42.664;23.346;2023-04-08T12:49:07;9.80;;;8.20;;
6679;SDS011;3376;42.664;23.346;2023-04-08T12:51:33;8.73;;;8.20;;
6679;SDS011;3376;42.664;23.346;2023-04-08T12:54:01;8.33;;;7.70;;
6679;SDS011;3376;42.664;23.346;2023-04-08T12:56:28;8.07;;;7.67;;
6679;SDS011;3376;42.664;23.346;2023-04-08T12:58:55;7.80;;;7.50;;
6679;SDS011;3376;42.664;23.346;2023-04-08T13:01:23;7.93;;;7.50;;
6679;SDS011;3376;42.664;23.346;2023-04-08T13:03:50;7.30;;;6.90;;
6679;SDS011;3376;42.664;23.346;2023-04-08T13:06:17;9.30;;;8.80;;
6679;SDS011;3376;42.664;23.346;2023-04-08T13:08:44;8.77;;;8.37;;
